Noodle, Texas
Current Conditions -  °F | °C
As of 12:58 AM on Saturday 25 Oct 2014 (Local Time) from KDYS Reporting Station
Clear Clear  
Wind Chill: 64°   Ceiling: Unl
Heat Index: 64°   Visibility: 10mi
Dew Point: 54°   Wind: 8mph
Humidity: 71%   Direction: 170°S
Pressure: 30.11"   Gusts: NA
Location:  32.3913°N, 100.009°W
Report Text: KDYS 250558Z AUTO 17007KT 10SM CLR 18/12 A3011 RMK AO2 SLP159 T01780124 10258 20171 403080147 50002 $
Loading
Personal Weather Stations






























Interactive Weather Map
Tropical Storm Tracking
New forecast layout! Learn more

10-Day Weather Forecast

Advertisements
Track Severe Weather on mobile